Time;durP1;ratioP1;P1;durP2;ratioP2;P2;SDS_P1;SDS_P2;PMS_P1;PMS_P2;Temp;Humidity;BMP_temperature;BMP_pressure;BME280_temperature;BME280_humidity;BME280_pressure;Samples;Min_cycle;Max_cycle;Signal;HPM_P1;HPM_P2
2022/01/14 00:01:04;;;;;;;52.92;24.00;;;;;;;-144.19;100.00;79469.91;4937241;29;20141;-90
2022/01/14 00:03:31;;;;;;;57.17;25.00;;;;;;;-144.19;100.00;79477.78;4937203;29;20090;-90
2022/01/14 00:05:58;;;;;;;61.30;27.52;;;;;;;-144.19;100.00;79479.75;4937550;29;20181;-89
2022/01/14 00:08:25;;;;;;;52.90;24.23;;;;;;;-144.19;100.00;79489.59;4954833;29;20047;-90
2022/01/14 00:10:51;;;;;;;53.43;23.70;;;;;;;-144.19;100.00;79479.75;4937291;29;20051;-90
2022/01/14 00:16:05;;;;;;;55.80;25.20;;;;;;;-144.19;100.00;79489.59;4954178;29;20305;-90
2022/01/14 00:18:32;;;;;;;55.45;25.38;;;;;;;-144.19;100.00;79464.00;4953140;29;20099;-90
2022/01/14 00:21:00;;;;;;;54.17;24.55;;;;;;;-144.19;100.00;79485.66;4954364;29;20055;-90
2022/01/14 00:23:36;;;;;;;55.22;26.65;;;;;;;-144.19;100.00;79491.56;4937726;29;20059;-90
2022/01/14 00:31:43;;;;;;;51.50;23.35;;;;;;;-144.19;100.00;79493.53;4958028;28;20051;-90
2022/01/14 00:34:14;;;;;;;53.93;24.43;;;;;;;-144.19;100.00;79473.84;4940329;29;20169;-90
2022/01/14 00:36:41;;;;;;;54.25;24.77;;;;;;;-144.19;100.00;79473.84;4956591;29;20059;-90
2022/01/14 00:39:10;;;;;;;55.28;26.27;;;;;;;-144.19;100.00;79475.81;4940892;29;20055;-90
2022/01/14 00:41:38;;;;;;;58.22;23.42;;;;;;;-144.19;100.00;79475.81;4940135;28;20059;-90
2022/01/14 00:44:10;;;;;;;54.60;24.15;;;;;;;-144.19;100.00;79465.97;4961042;28;20077;-90
2022/01/14 00:46:38;;;;;;;58.65;24.65;;;;;;;-144.19;100.00;79460.03;4959287;28;20055;-90
2022/01/14 00:49:05;;;;;;;59.40;26.23;;;;;;;-144.19;100.00;79454.13;4959444;28;20082;-90
2022/01/14 00:51:32;;;;;;;60.55;24.95;;;;;;;-144.19;100.00;79475.81;4975150;28;20061;-90
2022/01/14 00:53:58;;;;;;;54.13;23.95;;;;;;;-144.19;100.00;79454.13;4959933;28;20051;-90
2022/01/14 00:59:16;;;;;;;63.65;26.75;;;;;;;-144.19;100.00;79467.94;4956306;29;20053;-92
2022/01/14 01:01:55;;;;;;;57.08;24.35;;;;;;;-144.19;100.00;79448.22;4941013;28;20095;-93
2022/01/14 01:04:28;;;;;;;67.07;26.05;;;;;;;-144.19;100.00;79458.06;4946147;29;20081;-92
2022/01/14 01:06:56;;;;;;;64.00;26.63;;;;;;;-144.19;100.00;79442.31;4939947;29;20473;-92
2022/01/14 01:09:25;;;;;;;71.93;28.48;;;;;;;-144.19;100.00;79448.22;4940023;29;20071;-90
2022/01/14 01:12:10;;;;;;;68.03;25.13;;;;;;;-144.19;100.00;79458.06;4939991;28;20054;-90
2022/01/14 01:14:45;;;;;;;68.93;28.75;;;;;;;-144.19;100.00;79454.13;4921558;29;20056;-89
2022/01/14 01:17:12;;;;;;;67.63;26.55;;;;;;;-144.19;100.00;79434.44;4936720;29;20055;-92
2022/01/14 01:19:39;;;;;;;76.68;28.98;;;;;;;-144.19;100.00;79438.38;4935954;29;20051;-92
2022/01/14 01:22:06;;;;;;;73.85;30.00;;;;;;;-144.19;100.00;79454.13;4939312;28;20051;-90
2022/01/14 01:24:32;;;;;;;65.00;26.92;;;;;;;-144.19;100.00;79452.16;4959445;28;20055;-90
2022/01/14 01:27:04;;;;;;;61.53;25.85;;;;;;;-144.19;100.00;79450.19;4976241;28;20057;-90
2022/01/14 01:31:58;;;;;;;69.18;28.35;;;;;;;-144.19;100.00;79430.50;4975797;28;20050;-91
2022/01/14 01:34:29;;;;;;;70.75;28.77;;;;;;;-144.19;100.00;79434.44;4974650;28;20054;-90
2022/01/14 01:37:00;;;;;;;67.50;27.27;;;;;;;-144.19;100.00;79444.28;4974718;28;20130;-91
2022/01/14 01:39:29;;;;;;;74.20;28.83;;;;;;;-144.19;100.00;79456.09;4975617;28;20057;-89
2022/01/14 01:42:00;;;;;;;73.47;28.60;;;;;;;-144.19;100.00;79438.38;4957731;28;20520;-91
2022/01/14 01:44:28;;;;;;;79.55;29.40;;;;;;;-144.19;100.00;79448.22;4947035;29;20154;-91
2022/01/14 01:46:55;;;;;;;67.50;27.38;;;;;;;-144.19;100.00;79444.28;4939205;29;20051;-90
2022/01/14 01:49:28;;;;;;;74.40;29.25;;;;;;;-144.19;100.00;79436.41;4938722;29;20470;-90
2022/01/14 01:51:56;;;;;;;69.03;27.90;;;;;;;-144.19;100.00;79434.44;4939093;29;20398;-90
2022/01/14 01:54:25;;;;;;;78.50;29.88;;;;;;;-144.19;100.00;79440.34;4940177;28;20050;-90
2022/01/14 01:56:51;;;;;;;79.40;31.75;;;;;;;-144.19;100.00;79406.88;4959597;28;20057;-90
2022/01/14 01:59:20;;;;;;;73.40;28.98;;;;;;;-144.19;100.00;79424.59;4938336;29;20055;-90
2022/01/14 02:01:47;;;;;;;80.45;30.75;;;;;;;-144.19;100.00;79402.91;4952058;28;20054;-90
2022/01/14 02:04:14;;;;;;;78.65;30.40;;;;;;;-144.19;100.00;79398.97;4956619;28;20061;-91
2022/01/14 02:06:41;;;;;;;79.07;31.45;;;;;;;-144.19;100.00;79397.00;4972822;28;20061;-91
2022/01/14 02:09:09;;;;;;;;;;;;;;;-144.19;100.00;79371.41;4957413;28;20046;-90
2022/01/14 02:11:35;;;;;;;82.15;29.70;;;;;;;-144.19;100.00;79383.22;4944394;28;19928;-90
2022/01/14 02:14:11;;;;;;;83.45;30.38;;;;;;;-144.19;100.00;79391.09;4937200;29;20047;-90
2022/01/14 02:19:30;;;;;;;89.20;31.45;;;;;;;-144.19;100.00;79375.34;4954168;29;20049;-91
2022/01/14 02:22:12;;;;;;;78.82;30.75;;;;;;;-144.19;100.00;79379.28;4950852;28;20070;-91
2022/01/14 02:27:07;;;;;;;;;;;;;;;-144.19;100.00;79375.34;4935755;29;20051;-91
2022/01/14 02:29:34;;;;;;;91.05;30.35;;;;;;;-144.19;100.00;79367.47;4933591;29;19930;-91
2022/01/14 02:32:01;;;;;;;92.43;34.45;;;;;;;-144.19;100.00;79355.66;4937270;29;20138;-90
2022/01/14 02:34:28;;;;;;;84.97;31.30;;;;;;;-144.19;100.00;79361.56;4973469;23;20054;-89
2022/01/14 02:36:54;;;;;;;88.70;32.67;;;;;;;-144.19;100.00;79359.59;4959040;28;20060;-88
2022/01/14 02:39:21;;;;;;;80.60;30.50;;;;;;;-144.19;100.00;79371.41;4965199;28;20042;-88
2022/01/14 02:41:50;;;;;;;93.95;32.55;;;;;;;-144.19;100.00;79363.53;4975407;28;20051;-89
2022/01/14 02:44:24;;;;;;;84.07;30.42;;;;;;;-144.19;100.00;79351.72;4958582;28;20055;-89
2022/01/14 02:46:57;;;;;;;89.03;32.03;;;;;;;-144.19;100.00;79351.72;4958176;28;20054;-89
2022/01/14 02:49:28;;;;;;;85.93;30.83;;;;;;;-144.19;100.00;79357.63;4975367;28;20051;-89
2022/01/14 02:51:55;;;;;;;89.90;31.92;;;;;;;-144.19;100.00;79347.78;4975167;28;20046;-87
2022/01/14 02:54:31;;;;;;;87.57;30.10;;;;;;;-144.19;100.00;79373.38;4939011;29;20058;-91
2022/01/14 02:56:57;;;;;;;77.05;31.58;;;;;;;-144.19;100.00;79391.09;4953864;28;20046;-89
2022/01/14 02:59:26;;;;;;;79.05;29.85;;;;;;;-144.19;100.00;79377.31;4957473;28;20047;-87
2022/01/14 03:01:52;;;;;;;83.18;29.55;;;;;;;-144.19;100.00;79369.44;4956868;28;20062;-88
2022/01/14 03:04:21;;;;;;;77.57;31.15;;;;;;;-144.19;100.00;79367.47;4957872;28;20057;-88
2022/01/14 03:06:48;;;;;;;91.45;31.38;;;;;;;-144.19;100.00;79347.78;4958069;28;20061;-86
2022/01/14 03:09:15;;;;;;;81.20;30.92;;;;;;;-144.19;100.00;79341.84;4958196;28;20057;-89
2022/01/14 03:11:47;;;;;;;84.97;31.08;;;;;;;-144.19;100.00;79337.91;4957649;28;20339;-89
2022/01/14 03:14:15;;;;;;;92.45;33.15;;;;;;;-144.19;100.00;79343.81;4957394;28;20061;-88
2022/01/14 03:16:42;;;;;;;81.13;31.15;;;;;;;-144.19;100.00;79355.66;4957702;28;20061;-89
2022/01/14 03:19:22;;;;;;;78.88;29.42;;;;;;;-144.19;100.00;79351.72;4958488;28;20046;-88
2022/01/14 03:21:51;;;;;;;85.63;31.95;;;;;;;-144.19;100.00;79328.06;4957350;28;20065;-87
2022/01/14 03:25:36;;;;;;;86.38;30.92;;;;;;;-144.19;100.00;79332.00;4957806;28;20069;-88
2022/01/14 03:27:08;;;;;;;88.68;31.55;;;;;;;-144.19;100.00;79320.19;4974827;28;20066;-89
2022/01/14 03:29:35;;;;;;;87.78;30.50;;;;;;;-144.19;100.00;79320.19;4957843;28;20047;-88
2022/01/14 03:32:03;;;;;;;90.05;32.33;;;;;;;-144.19;100.00;79304.44;4957382;28;20595;-87
2022/01/14 03:34:31;;;;;;;88.05;29.73;;;;;;;-144.19;100.00;79320.19;4958189;28;20076;-89
2022/01/14 03:36:58;;;;;;;84.78;31.80;;;;;;;-144.19;100.00;79320.19;4958082;28;20054;-90
2022/01/14 03:39:25;;;;;;;85.45;31.30;;;;;;;-144.19;100.00;79300.50;4975087;28;20047;-88
2022/01/14 03:41:51;;;;;;;87.43;31.65;;;;;;;-144.19;100.00;79302.47;4974531;28;20580;-88
2022/01/14 03:44:18;;;;;;;86.78;31.48;;;;;;;-144.19;100.00;79304.44;4957572;28;20059;-89
2022/01/14 03:46:45;;;;;;;92.55;31.38;;;;;;;-144.19;100.00;79304.44;4958094;28;20596;-90
2022/01/14 03:49:12;;;;;;;83.35;30.95;;;;;;;-144.19;100.00;79296.56;4957981;28;20053;-89
2022/01/14 03:51:38;;;;;;;90.03;33.72;;;;;;;-144.19;100.00;79320.19;4957982;28;20501;-89
2022/01/14 03:54:05;;;;;;;98.70;32.33;;;;;;;-144.19;100.00;79318.22;4957348;28;20046;-89
2022/01/14 03:56:32;;;;;;;87.88;31.63;;;;;;;-144.19;100.00;79296.56;4944749;29;20058;-88
2022/01/14 03:58:59;;;;;;;90.57;31.80;;;;;;;-144.19;100.00;79280.78;4936762;29;20107;-90
2022/01/14 04:01:25;;;;;;;91.60;32.00;;;;;;;-144.19;100.00;79302.47;4937126;29;20155;-88
2022/01/14 04:03:52;;;;;;;97.25;32.97;;;;;;;-144.19;100.00;79288.69;4956537;28;20556;-89
2022/01/14 04:06:18;;;;;;;98.67;34.73;;;;;;;-144.19;100.00;79290.66;4960659;28;20554;-89
2022/01/14 04:08:45;;;;;;;83.27;31.10;;;;;;;-144.19;100.00;79288.69;4959364;28;20819;-89
2022/01/14 04:11:12;;;;;;;90.50;31.70;;;;;;;-144.19;100.00;79292.63;4961185;28;20296;-88
2022/01/14 04:13:47;;;;;;;101.82;35.38;;;;;;;-144.19;100.00;79280.78;4976419;28;20090;-89
2022/01/14 04:16:14;;;;;;;101.22;34.47;;;;;;;-144.19;100.00;79265.03;4980855;28;20057;-88
2022/01/14 04:18:41;;;;;;;85.28;32.47;;;;;;;-144.19;100.00;79253.22;4962943;28;20047;-89
2022/01/14 04:21:08;;;;;;;95.03;32.70;;;;;;;-144.19;100.00;79272.91;4960515;28;20055;-87
2022/01/14 04:23:35;;;;;;;110.28;36.03;;;;;;;-144.19;100.00;79243.38;4960176;28;20420;-89
2022/01/14 04:26:02;;;;;;;86.20;32.88;;;;;;;-144.19;100.00;79272.91;4960542;28;20059;-90
2022/01/14 04:28:30;;;;;;;83.15;32.00;;;;;;;-144.19;100.00;79267.00;4960828;28;20069;-88
2022/01/14 04:30:57;;;;;;;92.55;33.47;;;;;;;-144.19;100.00;79249.28;4960557;28;20051;-87
2022/01/14 04:33:25;;;;;;;97.10;39.15;;;;;;;-144.19;100.00;79259.13;4960361;28;20047;-88
2022/01/14 04:35:54;;;;;;;92.03;35.20;;;;;;;-144.19;100.00;79247.31;4977729;28;20055;-87
2022/01/14 04:38:22;;;;;;;95.38;33.83;;;;;;;-144.19;100.00;79235.50;4961006;28;20078;-87
2022/01/14 04:40:48;;;;;;;97.88;33.13;;;;;;;-144.19;100.00;79249.28;4961291;28;20058;-89
2022/01/14 04:43:17;;;;;;;92.47;35.05;;;;;;;-144.19;100.00;79239.44;4959912;28;20523;-87
2022/01/14 04:46:02;;;;;;;93.13;35.00;;;;;;;-144.19;100.00;79249.28;4960481;28;20493;-87
2022/01/14 04:48:30;;;;;;;101.95;32.53;;;;;;;-144.19;100.00;79251.25;4977389;28;20537;-87
2022/01/14 04:50:58;;;;;;;83.15;32.38;;;;;;;-144.19;100.00;79231.56;4960459;28;20061;-86
2022/01/14 04:53:25;;;;;;;89.22;32.85;;;;;;;-144.19;100.00;79241.41;4973856;28;20057;-85
2022/01/14 04:55:53;;;;;;;86.25;31.65;;;;;;;-144.19;100.00;79225.66;4974206;28;20055;-86
2022/01/14 04:58:20;;;;;;;88.68;31.65;;;;;;;-144.19;100.00;79229.59;4958267;28;20059;-86
2022/01/14 05:00:46;;;;;;;105.00;34.40;;;;;;;-144.19;100.00;79221.72;4957932;28;20055;-88
2022/01/14 05:03:13;;;;;;;79.45;30.42;;;;;;;-144.19;100.00;79237.47;4975597;28;20676;-87
2022/01/14 05:05:43;;;;;;;84.55;33.55;;;;;;;-144.19;100.00;79221.72;4958908;28;20138;-87
2022/01/14 05:08:15;;;;;;;97.47;33.97;;;;;;;-144.19;100.00;79215.78;4976370;28;20047;-88
2022/01/14 05:11:01;;;;;;;88.88;32.60;;;;;;;-144.19;100.00;79213.81;4958256;28;20061;-87
2022/01/14 05:13:27;;;;;;;89.68;33.08;;;;;;;-144.19;100.00;79205.94;4958125;28;20074;-85
2022/01/14 05:15:55;;;;;;;84.40;31.63;;;;;;;-144.19;100.00;79209.88;4958313;28;20050;-87
2022/01/14 05:18:22;;;;;;;92.47;31.85;;;;;;;-144.19;100.00;79200.03;4958913;28;20310;-87
2022/01/14 05:20:50;;;;;;;92.13;31.58;;;;;;;-144.19;100.00;79217.75;4975263;28;20074;-86
2022/01/14 05:23:17;;;;;;;83.90;32.03;;;;;;;-144.19;100.00;79200.03;4976429;28;20058;-86
2022/01/14 05:25:43;;;;;;;83.23;32.53;;;;;;;-144.19;100.00;79200.03;4976179;28;20051;-86
2022/01/14 05:28:09;;;;;;;95.37;34.53;;;;;;;-144.19;100.00;79198.06;4958453;28;20062;-86
2022/01/14 05:30:36;;;;;;;101.43;38.07;;;;;;;-144.19;100.00;79194.13;4973943;28;20047;-85
2022/01/14 05:33:02;;;;;;;99.57;37.33;;;;;;;-144.19;100.00;79186.25;4957950;28;20069;-85
2022/01/14 05:35:29;;;;;;;101.15;37.80;;;;;;;-144.19;100.00;79164.59;4954691;28;20428;-88
2022/01/14 05:37:55;;;;;;;96.47;36.60;;;;;;;-144.19;100.00;79180.34;4958664;28;20138;-89
2022/01/14 05:40:25;;;;;;;94.90;37.15;;;;;;;-144.19;100.00;79162.63;4974495;28;20422;-89
2022/01/14 05:42:51;;;;;;;103.00;41.63;;;;;;;-144.19;100.00;79156.72;4973076;28;20058;-87
2022/01/14 05:45:18;;;;;;;114.38;40.28;;;;;;;-144.19;100.00;79158.69;4956627;28;20658;-87
2022/01/14 05:47:44;;;;;;;99.95;37.05;;;;;;;-144.19;100.00;79166.56;4976469;28;20074;-86
2022/01/14 05:50:14;;;;;;;102.95;39.42;;;;;;;-144.19;100.00;79140.94;4955162;28;20089;-87
2022/01/14 05:52:40;;;;;;;100.47;38.97;;;;;;;-144.19;100.00;79154.72;4955137;28;20058;-86
2022/01/14 05:55:09;;;;;;;96.97;35.95;;;;;;;-144.19;100.00;79158.69;4964241;28;20050;-87
2022/01/14 05:57:38;;;;;;;91.40;36.60;;;;;;;-144.19;100.00;79154.72;4958880;28;20065;-88
2022/01/14 06:00:08;;;;;;;82.05;33.30;;;;;;;-144.19;100.00;79168.53;4958909;28;20104;-88
2022/01/14 06:02:34;;;;;;;97.07;36.53;;;;;;;-144.19;100.00;79150.78;4959412;28;20046;-88
2022/01/14 06:05:01;;;;;;;86.18;33.28;;;;;;;-144.19;100.00;79166.56;4961154;28;20087;-86
2022/01/14 06:07:27;;;;;;;98.13;37.58;;;;;;;-144.19;100.00;79166.56;4948430;28;20417;-89
2022/01/14 06:09:54;;;;;;;90.20;34.92;;;;;;;-144.19;100.00;79154.72;4959544;28;20468;-87
2022/01/14 06:12:20;;;;;;;87.37;34.27;;;;;;;-144.19;100.00;79138.97;4950542;28;20150;-87
2022/01/14 06:14:46;;;;;;;90.47;35.25;;;;;;;-144.19;100.00;79115.34;4948428;28;20647;-90
2022/01/14 06:17:13;;;;;;;87.97;34.97;;;;;;;-144.19;100.00;79111.41;4952586;28;20123;-89
2022/01/14 06:19:39;;;;;;;92.70;36.20;;;;;;;-144.19;100.00;79115.34;4947433;29;20880;-87
2022/01/14 06:22:06;;;;;;;90.33;35.70;;;;;;;-144.19;100.00;79127.16;4949143;28;20046;-88
2022/01/14 06:24:32;;;;;;;90.20;34.53;;;;;;;-144.19;100.00;79127.16;4958605;28;20502;-89
2022/01/14 06:26:59;;;;;;;99.72;35.42;;;;;;;-144.19;100.00;79119.28;4957847;28;20054;-89
2022/01/14 06:29:25;;;;;;;85.03;33.70;;;;;;;-144.19;100.00;79121.25;4958496;28;20058;-89
2022/01/14 06:31:51;;;;;;;88.03;33.57;;;;;;;-144.19;100.00;79119.28;4958420;28;20051;-85
2022/01/14 06:34:18;;;;;;;88.23;37.63;;;;;;;-144.19;100.00;79115.34;4957679;28;20290;-89
2022/01/14 06:36:44;;;;;;;99.93;38.73;;;;;;;-144.19;100.00;79119.28;4958504;28;20152;-88
2022/01/14 06:39:11;;;;;;;104.23;39.47;;;;;;;-144.19;100.00;79117.31;4958193;28;20799;-89
2022/01/14 06:41:37;;;;;;;92.13;34.03;;;;;;;-144.19;100.00;79099.59;4975649;28;20298;-86
2022/01/14 06:44:05;;;;;;;89.72;33.83;;;;;;;-144.19;100.00;79103.53;4958054;28;20060;-89
2022/01/14 06:46:45;;;;;;;87.50;37.28;;;;;;;-144.19;100.00;79117.31;4965692;28;20057;-87
2022/01/14 06:49:12;;;;;;;88.67;35.00;;;;;;;-144.19;100.00;79111.41;4956195;28;20601;-88
2022/01/14 06:51:38;;;;;;;88.30;35.10;;;;;;;-144.19;100.00;79138.97;4957442;28;20047;-90
2022/01/14 06:54:05;;;;;;;86.60;35.33;;;;;;;-144.19;100.00;79138.97;4939999;29;20058;-87
2022/01/14 06:56:31;;;;;;;83.80;33.40;;;;;;;-144.19;100.00;79135.03;4949840;28;20519;-89
2022/01/14 06:59:03;;;;;;;87.72;34.47;;;;;;;-144.19;100.00;79135.03;4958351;28;20051;-88
2022/01/14 07:01:29;;;;;;;83.73;31.77;;;;;;;-144.19;100.00;79140.94;4952161;29;20055;-88
2022/01/14 07:03:56;;;;;;;84.00;32.92;;;;;;;-144.19;100.00;79150.78;4938511;29;20051;-87
2022/01/14 07:06:22;;;;;;;80.90;33.77;;;;;;;-144.19;100.00;79154.72;4938573;29;20061;-89
2022/01/14 07:08:49;;;;;;;95.10;34.63;;;;;;;-144.19;100.00;79142.91;4956080;29;20151;-87
2022/01/14 07:11:17;;;;;;;92.70;33.90;;;;;;;-144.19;100.00;79174.44;4955083;29;20412;-87
2022/01/14 07:13:44;;;;;;;88.97;32.47;;;;;;;-144.19;100.00;79194.13;4938062;29;20293;-88
2022/01/14 07:16:10;;;;;;;81.23;32.13;;;;;;;-144.19;100.00;79158.69;4937729;29;20059;-87
2022/01/14 07:18:37;;;;;;;74.90;31.00;;;;;;;-144.19;100.00;79162.63;4938924;29;20090;-88
2022/01/14 07:21:03;;;;;;;80.87;32.90;;;;;;;-144.19;100.00;79150.78;4954648;29;20405;-87
2022/01/14 07:23:30;;;;;;;81.30;32.03;;;;;;;-144.19;100.00;79158.69;4938293;29;20781;-89
2022/01/14 07:25:56;;;;;;;82.65;33.40;;;;;;;-144.19;100.00;79178.38;4955399;29;20055;-88
2022/01/14 07:28:23;;;;;;;84.30;33.87;;;;;;;-144.19;100.00;79168.53;4955724;29;20059;-89
2022/01/14 07:30:49;;;;;;;94.10;36.77;;;;;;;-144.19;100.00;79162.63;4938371;29;20433;-89
2022/01/14 07:33:16;;;;;;;97.90;32.50;;;;;;;-144.19;100.00;79176.41;4936702;29;20346;-90
2022/01/14 07:35:43;;;;;;;95.38;35.22;;;;;;;-144.19;100.00;79166.56;4936174;29;20903;-89
2022/01/14 07:38:10;;;;;;;89.93;33.33;;;;;;;-144.19;100.00;79186.25;4952844;28;20051;-90
2022/01/14 07:40:38;;;;;;;80.63;32.57;;;;;;;-144.19;100.00;79174.44;4951091;28;20050;-88
2022/01/14 07:43:06;;;;;;;82.88;31.38;;;;;;;-144.19;100.00;79198.06;4959401;28;20286;-89
2022/01/14 07:45:33;;;;;;;85.90;35.30;;;;;;;-144.19;100.00;79203.97;4959534;28;20054;-89
2022/01/14 07:47:59;;;;;;;83.53;33.93;;;;;;;-144.19;100.00;79205.94;4959292;28;20061;-88
2022/01/14 07:50:28;;;;;;;82.68;33.28;;;;;;;-144.19;100.00;79202.00;4959279;28;20047;-89
2022/01/14 07:52:55;;;;;;;92.72;35.00;;;;;;;-144.19;100.00;79202.00;4958597;28;20054;-88
2022/01/14 07:55:21;;;;;;;87.60;32.13;;;;;;;-144.19;100.00;79205.94;4974123;28;20054;-88
2022/01/14 07:57:48;;;;;;;92.15;35.65;;;;;;;-144.19;100.00;79205.94;4940254;29;20057;-89
2022/01/14 08:00:14;;;;;;;93.20;34.80;;;;;;;-144.19;100.00;79190.19;4940268;29;20485;-87
2022/01/14 08:02:41;;;;;;;99.18;35.47;;;;;;;-144.19;100.00;79213.81;4952154;28;20830;-88
2022/01/14 08:05:08;;;;;;;90.67;35.17;;;;;;;-144.19;100.00;79213.81;4957980;28;20062;-88
2022/01/14 08:07:43;;;;;;;95.93;34.28;;;;;;;-144.19;100.00;79217.75;4958591;28;20055;-88
2022/01/14 08:10:11;;;;;;;87.88;34.72;;;;;;;-144.19;100.00;79209.88;4975872;28;20443;-89
2022/01/14 08:12:37;;;;;;;91.38;33.75;;;;;;;-144.19;100.00;79200.03;4958286;28;20420;-86
2022/01/14 08:15:05;;;;;;;93.40;37.58;;;;;;;-144.19;100.00;79202.00;4957223;28;20077;-87
2022/01/14 08:17:31;;;;;;;100.43;38.22;;;;;;;-144.19;100.00;79205.94;4957776;28;20058;-86
2022/01/14 08:19:58;;;;;;;91.53;33.05;;;;;;;-144.19;100.00;79186.25;4973503;28;20093;-88
2022/01/14 08:22:24;;;;;;;94.83;36.60;;;;;;;-144.19;100.00;79190.19;4957576;28;20069;-90
2022/01/14 08:24:51;;;;;;;93.65;34.72;;;;;;;-144.19;100.00;79184.28;4957517;28;20437;-88
2022/01/14 08:27:17;;;;;;;96.03;36.07;;;;;;;-144.19;100.00;79172.47;4957987;28;20053;-89
2022/01/14 08:29:44;;;;;;;93.83;36.63;;;;;;;-144.19;100.00;79190.19;4958374;28;20421;-90
2022/01/14 08:32:11;;;;;;;88.95;34.28;;;;;;;-144.19;100.00;79186.25;4957477;28;20309;-90
2022/01/14 08:34:37;;;;;;;90.73;33.13;;;;;;;-144.19;100.00;79202.00;4994785;23;20432;-90
2022/01/14 08:37:04;;;;;;;84.82;35.15;;;;;;;-144.19;100.00;79202.00;4957508;28;20137;-90
2022/01/14 08:39:31;;;;;;;87.57;35.20;;;;;;;-144.19;100.00;79202.00;4956998;28;20513;-90
2022/01/14 08:41:58;;;;;;;88.33;35.00;;;;;;;-144.19;100.00;79186.25;4973005;28;20522;-90
2022/01/14 08:44:25;;;;;;;;;;;;;;;-144.19;100.00;79198.06;4957450;28;20043;-90
2022/01/14 08:46:53;;;;;;;90.68;34.72;;;;;;;-144.19;100.00;79198.06;4956426;28;20388;-90
2022/01/14 08:49:19;;;;;;;96.80;38.15;;;;;;;-144.19;100.00;79198.06;4974518;28;20149;-89
2022/01/14 08:51:48;;;;;;;87.03;32.60;;;;;;;-144.19;100.00;79217.75;4956778;28;20429;-89
2022/01/14 08:54:14;;;;;;;87.78;33.72;;;;;;;-144.19;100.00;79203.97;4956318;28;20050;-90
2022/01/14 08:56:41;;;;;;;88.00;33.83;;;;;;;-144.19;100.00;79213.81;4955636;28;20512;-92
2022/01/14 08:59:07;;;;;;;95.00;35.38;;;;;;;-144.19;100.00;79198.06;4957158;28;20055;-91
2022/01/14 09:01:35;;;;;;;94.10;34.20;;;;;;;-144.19;100.00;79180.34;4973988;28;20078;-91
2022/01/14 09:04:02;;;;;;;93.18;35.88;;;;;;;-144.19;100.00;79202.00;4973642;28;20051;-91
2022/01/14 09:06:28;;;;;;;89.87;35.57;;;;;;;-144.19;100.00;79200.03;4956370;28;20054;-92
2022/01/14 09:08:55;;;;;;;93.13;36.73;;;;;;;-144.19;100.00;79194.13;4956524;28;20055;-91
2022/01/14 09:11:21;;;;;;;98.10;37.33;;;;;;;-144.19;100.00;79182.31;4973567;28;20297;-91
2022/01/14 09:13:48;;;;;;;104.60;36.60;;;;;;;-144.19;100.00;79176.41;4956542;28;20051;-91
2022/01/14 09:16:17;;;;;;;91.70;36.00;;;;;;;-144.19;100.00;79174.44;4972712;28;20317;-91
2022/01/14 09:18:43;;;;;;;104.93;36.97;;;;;;;-144.19;100.00;79164.59;4956663;28;20058;-91
2022/01/14 09:21:10;;;;;;;98.47;35.20;;;;;;;-144.19;100.00;79158.69;4956248;28;20149;-91
2022/01/14 09:23:37;;;;;;;96.17;34.60;;;;;;;-144.19;100.00;79150.78;4955923;28;20523;-91
2022/01/14 09:26:03;;;;;;;;;;;;;;;-144.19;100.00;79160.66;4956716;28;20298;-90
2022/01/14 09:28:30;;;;;;;98.53;38.92;;;;;;;-144.19;100.00;79146.84;4956587;28;19948;-91
2022/01/14 09:30:57;;;;;;;90.93;36.67;;;;;;;-144.19;100.00;79154.72;4956040;28;20061;-91
2022/01/14 09:33:23;;;;;;;94.90;35.67;;;;;;;-144.19;100.00;79160.66;4973039;28;20053;-91
2022/01/14 09:35:50;;;;;;;91.60;38.03;;;;;;;-144.19;100.00;79150.78;4972992;28;20311;-91
2022/01/14 09:38:17;;;;;;;89.00;35.13;;;;;;;-144.19;100.00;79133.06;4956312;28;20304;-91
2022/01/14 09:40:48;;;;;;;88.90;34.60;;;;;;;-144.19;100.00;79131.09;4956027;28;20654;-91
2022/01/14 09:43:16;;;;;;;87.93;37.03;;;;;;;-144.19;100.00;79131.09;4955629;28;20047;-91
2022/01/14 09:46:00;;;;;;;87.20;36.65;;;;;;;-144.19;100.00;79138.97;4958157;28;20497;-91
2022/01/14 09:48:27;;;;;;;96.35;35.97;;;;;;;-144.19;100.00;79138.97;4973516;28;20058;-90
2022/01/14 09:50:53;;;;;;;86.90;34.03;;;;;;;-144.19;100.00;79119.28;4955264;28;20053;-90
2022/01/14 09:53:20;;;;;;;86.07;34.45;;;;;;;-144.19;100.00;79111.41;4955493;28;20062;-90
2022/01/14 09:55:46;;;;;;;90.30;36.37;;;;;;;-144.19;100.00;79119.28;4967571;28;20061;-90
2022/01/14 09:58:13;;;;;;;79.45;32.28;;;;;;;-144.19;100.00;79138.97;4963491;28;20306;-92
2022/01/14 10:00:39;;;;;;;94.90;37.20;;;;;;;-144.19;100.00;79125.19;4955227;28;20523;-91
2022/01/14 10:03:25;;;;;;;75.20;33.92;;;;;;;-144.19;100.00;79121.25;4955277;28;20051;-90
2022/01/14 10:05:57;;;;;;;76.75;32.80;;;;;;;-144.19;100.00;79113.38;4972907;28;20051;-94
2022/01/14 10:08:28;;;;;;;74.90;32.28;;;;;;;-144.19;100.00;79135.03;4955848;28;20474;-90
2022/01/14 10:10:59;;;;;;;87.50;34.92;;;;;;;-144.19;100.00;79107.47;4972733;28;20061;-92
2022/01/14 10:13:28;;;;;;;80.65;34.03;;;;;;;-144.19;100.00;79099.59;4974097;28;20063;-89
2022/01/14 10:16:04;;;;;;;78.97;36.25;;;;;;;-144.19;100.00;79123.22;4955501;28;20054;-89
2022/01/14 10:18:33;;;;;;;87.50;34.03;;;;;;;-144.19;100.00;79091.72;4972476;28;20153;-91
2022/01/14 10:21:02;;;;;;;87.65;36.53;;;;;;;-144.19;100.00;79119.28;4955188;28;20138;-91
2022/01/14 10:23:42;;;;;;;84.65;34.58;;;;;;;-144.19;100.00;79123.22;4972053;28;20084;-91
2022/01/14 10:26:10;;;;;;;93.45;37.85;;;;;;;-144.19;100.00;79099.59;4972701;28;20149;-91
2022/01/14 10:28:37;;;;;;;89.40;39.67;;;;;;;-144.19;100.00;79099.59;4955395;28;20057;-90
2022/01/14 10:31:05;;;;;;;;;;;;;;;-144.19;100.00;79093.69;4955253;28;20501;-91
2022/01/14 10:33:32;;;;;;;93.30;41.90;;;;;;;-144.19;100.00;79085.78;4954737;28;20381;-92
2022/01/14 10:35:58;;;;;;;89.40;38.60;;;;;;;-144.19;100.00;79087.78;4954899;28;20050;-90
2022/01/14 10:38:36;;;;;;;80.78;34.10;;;;;;;-144.19;100.00;79068.06;4972510;28;20055;-91
2022/01/14 10:41:08;;;;;;;83.25;36.50;;;;;;;-144.19;100.00;79075.94;4955190;28;20051;-90
2022/01/14 10:43:36;;;;;;;104.75;46.35;;;;;;;-144.19;100.00;79087.78;4971788;28;20051;-91
2022/01/14 10:46:08;;;;;;;72.45;32.88;;;;;;;-144.19;100.00;79099.59;4954260;28;20130;-91
2022/01/14 10:48:37;;;;;;;70.93;32.53;;;;;;;-144.19;100.00;79095.66;4954473;28;20105;-91
2022/01/14 10:51:13;;;;;;;71.50;33.40;;;;;;;-144.19;100.00;79064.13;4955253;28;20051;-91
2022/01/14 10:53:48;;;;;;;73.18;32.95;;;;;;;-144.19;100.00;79075.94;4941029;29;20059;-90
2022/01/14 10:56:19;;;;;;;77.18;33.88;;;;;;;-144.19;100.00;79064.13;4945515;29;20465;-91
2022/01/14 10:58:48;;;;;;;81.15;37.03;;;;;;;-144.19;100.00;79068.06;4936276;29;20070;-90
2022/01/14 11:01:20;;;;;;;67.35;30.83;;;;;;;-144.19;100.00;79064.13;4953983;29;20051;-93
2022/01/14 11:04:02;;;;;;;67.05;30.80;;;;;;;-144.19;100.00;79089.72;4951838;28;20054;-89
2022/01/14 11:06:31;;;;;;;63.45;29.90;;;;;;;-144.19;100.00;79095.66;4955073;28;20387;-91
2022/01/14 11:09:03;;;;;;;73.80;32.22;;;;;;;-144.19;100.00;79068.06;4955269;28;20065;-90
2022/01/14 11:11:36;;;;;;;73.28;32.58;;;;;;;-144.19;100.00;79064.13;4955057;28;20425;-90
2022/01/14 11:14:03;;;;;;;65.88;30.13;;;;;;;-144.19;100.00;79066.09;4971164;28;20142;-91
2022/01/14 11:16:31;;;;;;;58.45;28.80;;;;;;;-144.19;100.00;79048.38;4955592;28;20142;-91
2022/01/14 11:18:59;;;;;;;;;;;;;;;-144.19;100.00;79070.03;4955461;28;20051;-89